Time;durP1;ratioP1;P1;durP2;ratioP2;P2;SDS_P1;SDS_P2;PMS_P1;PMS_P2;Temp;Humidity;BMP_temperature;BMP_pressure;BME280_temperature;BME280_humidity;BME280_pressure;Samples;Min_cycle;Max_cycle;Signal;HPM_P1;HPM_P2
2021/08/05 00:00:41;;;;;;;3.45;2.22;;;;;;;20.66;66.49;100783.56;5054715;28;20080;-62
2021/08/05 00:03:08;;;;;;;3.67;2.17;;;;;;;20.54;66.58;100773.75;5062908;28;20131;-61
2021/08/05 00:05:36;;;;;;;6.00;2.83;;;;;;;20.65;66.72;100790.38;5069717;28;20048;-62
2021/08/05 00:08:04;;;;;;;4.75;2.40;;;;;;;20.64;66.53;100789.56;5061206;28;20420;-60
2021/08/05 00:10:31;;;;;;;5.10;2.25;;;;;;;20.57;66.70;100781.59;5052801;28;20072;-62
2021/08/05 00:12:58;;;;;;;10.05;3.13;;;;;;;20.61;66.87;100793.06;5057968;28;20124;-61
2021/08/05 00:15:24;;;;;;;9.45;2.47;;;;;;;20.63;66.84;100796.41;5061362;28;20079;-63
2021/08/05 00:17:51;;;;;;;5.90;2.50;;;;;;;20.58;66.84;100788.09;5064665;28;20080;-61
2021/08/05 00:20:19;;;;;;;6.47;3.15;;;;;;;20.57;66.97;100767.41;5061165;28;20565;-63
2021/08/05 00:22:45;;;;;;;6.20;2.83;;;;;;;20.56;67.20;100773.44;5068573;28;20047;-63
2021/08/05 00:25:12;;;;;;;5.68;2.75;;;;;;;20.54;67.00;100765.25;5056832;28;21664;-62
2021/08/05 00:27:39;;;;;;;5.70;2.72;;;;;;;20.67;67.07;100777.53;5054313;28;20132;-61
2021/08/05 00:30:07;;;;;;;9.20;2.63;;;;;;;20.74;66.82;100776.97;5066355;28;20052;-63
2021/08/05 00:32:35;;;;;;;5.55;2.42;;;;;;;20.70;66.34;100770.34;5061769;28;20068;-62
2021/08/05 00:35:03;;;;;;;5.40;2.35;;;;;;;20.77;66.42;100759.28;5070214;28;20162;-59
2021/08/05 00:37:30;;;;;;;3.65;2.42;;;;;;;20.68;66.52;100749.97;5069891;28;20131;-60
2021/08/05 00:39:57;;;;;;;3.22;2.17;;;;;;;20.76;66.16;100764.13;5065088;28;20080;-59
2021/08/05 00:42:24;;;;;;;5.30;1.85;;;;;;;20.76;66.22;100768.97;5058800;28;20460;-60
2021/08/05 00:44:51;;;;;;;5.78;2.67;;;;;;;20.73;66.31;100770.47;5071317;28;20132;-60
2021/08/05 00:47:18;;;;;;;6.03;2.78;;;;;;;20.78;66.07;100767.41;5061487;28;20132;-60
2021/08/05 00:49:45;;;;;;;4.82;2.42;;;;;;;20.69;66.09;100745.97;5066941;28;21360;-59
2021/08/05 00:52:12;;;;;;;3.40;2.20;;;;;;;20.80;66.11;100756.56;5068832;28;20416;-60
2021/08/05 00:54:39;;;;;;;3.10;2.22;;;;;;;20.83;66.02;100757.91;5074207;28;20083;-59
2021/08/05 00:57:06;;;;;;;5.97;2.42;;;;;;;20.80;65.67;100738.72;5055929;28;20047;-59
2021/08/05 00:59:32;;;;;;;4.85;2.30;;;;;;;20.85;65.84;100755.53;5056558;28;20132;-58
2021/08/05 01:02:16;;;;;;;8.95;2.47;;;;;;;20.81;65.95;100740.38;5056800;28;20659;-59
2021/08/05 01:04:49;;;;;;;4.45;2.22;;;;;;;20.87;65.91;100749.53;5065066;28;20678;-59
2021/08/05 01:07:22;;;;;;;3.08;1.95;;;;;;;20.82;65.75;100733.53;5076034;28;20082;-58
2021/08/05 01:10:11;;;;;;;5.88;2.38;;;;;;;20.87;65.80;100747.50;5058556;28;20041;-59
2021/08/05 01:12:52;;;;;;;8.43;2.22;;;;;;;20.86;65.75;100740.19;5059362;28;20049;-59
2021/08/05 01:15:27;;;;;;;5.78;2.10;;;;;;;20.85;65.32;100726.31;5059193;28;20074;-59
2021/08/05 01:18:08;;;;;;;3.25;2.00;;;;;;;20.89;65.54;100733.81;5070471;28;20072;-60
2021/08/05 01:20:41;;;;;;;4.05;1.85;;;;;;;20.90;65.23;100746.00;5067389;28;20098;-61
2021/08/05 01:24:01;;;;;;;4.63;2.30;;;;;;;20.83;65.33;100741.69;5059466;28;20132;-61
2021/08/05 01:26:47;;;;;;;3.40;2.08;;;;;;;20.85;65.08;100732.81;5010734;28;20041;-60
2021/08/05 01:29:23;;;;;;;3.38;2.03;;;;;;;20.82;65.39;100747.72;5046217;28;20507;-59
2021/08/05 01:31:51;;;;;;;4.18;2.28;;;;;;;20.74;65.13;100734.41;5066822;28;20068;-58
2021/08/05 01:34:19;;;;;;;6.40;2.25;;;;;;;20.79;64.92;100746.41;5061158;28;20054;-59
2021/08/05 01:36:48;;;;;;;2.78;1.63;;;;;;;20.62;65.11;100717.31;5063545;28;20136;-59
2021/08/05 01:39:17;;;;;;;5.20;2.30;;;;;;;20.79;65.07;100742.75;5060402;28;20113;-59
2021/08/05 01:41:46;;;;;;;5.88;2.65;;;;;;;20.79;65.02;100737.06;5056899;28;20127;-58
2021/08/05 01:44:13;;;;;;;4.88;2.00;;;;;;;20.63;65.01;100710.47;5055854;28;20129;-59
2021/08/05 01:46:40;;;;;;;6.97;1.92;;;;;;;20.77;64.85;100736.56;5065825;28;20068;-59
2021/08/05 01:49:07;;;;;;;5.95;2.45;;;;;;;20.83;64.79;100723.84;5057824;28;20139;-59
2021/08/05 01:51:35;;;;;;;3.75;2.03;;;;;;;20.85;65.21;100726.31;5061868;28;20080;-58
2021/08/05 01:54:02;;;;;;;5.43;2.17;;;;;;;20.90;65.03;100723.28;5061464;28;20480;-58
2021/08/05 01:56:29;;;;;;;8.20;2.20;;;;;;;20.91;65.06;100722.91;5068736;28;20331;-61
2021/08/05 01:58:57;;;;;;;4.70;2.72;;;;;;;20.82;65.05;100702.31;5039022;28;20144;-61
2021/08/05 02:01:24;;;;;;;5.07;2.33;;;;;;;20.68;64.95;100676.19;5068369;28;20080;-61
2021/08/05 02:04:19;;;;;;;5.97;2.35;;;;;;;20.92;65.08;100699.06;5059011;28;20049;-61
2021/08/05 02:07:02;;;;;;;2.78;2.00;;;;;;;21.00;64.85;100694.47;5060153;28;20071;-61
2021/08/05 02:09:35;;;;;;;3.92;2.10;;;;;;;20.91;64.92;100679.50;5062624;28;20144;-62
2021/08/05 02:12:03;;;;;;;3.63;2.20;;;;;;;20.92;64.80;100684.00;5056329;28;20469;-63
2021/08/05 02:14:34;;;;;;;4.47;2.40;;;;;;;20.98;64.70;100694.81;5066578;28;20127;-63
2021/08/05 02:17:02;;;;;;;5.38;2.28;;;;;;;20.93;64.94;100688.53;5056891;28;20078;-63
2021/08/05 02:19:31;;;;;;;7.20;2.60;;;;;;;20.99;64.71;100696.50;5062535;28;20049;-61
2021/08/05 02:21:59;;;;;;;4.13;2.40;;;;;;;20.99;64.79;100687.13;5068203;28;20135;-62
2021/08/05 02:24:30;;;;;;;7.25;2.40;;;;;;;20.99;64.95;100681.44;5062017;28;20095;-61
2021/08/05 02:27:01;;;;;;;3.83;2.15;;;;;;;20.97;64.59;100684.63;5053901;28;20045;-62
2021/08/05 02:29:28;;;;;;;7.15;2.92;;;;;;;20.99;64.44;100679.44;5062340;28;20127;-61
2021/08/05 02:31:56;;;;;;;3.50;2.35;;;;;;;20.95;64.59;100675.63;5043143;28;20484;-62
2021/08/05 02:34:24;;;;;;;3.55;1.98;;;;;;;20.95;64.54;100669.94;5059463;28;20091;-60
2021/08/05 02:36:52;;;;;;;5.23;2.60;;;;;;;20.87;64.53;100659.50;5073987;28;20056;-60
2021/08/05 02:39:19;;;;;;;4.65;2.22;;;;;;;20.86;64.71;100662.72;5054543;28;20333;-59
2021/08/05 02:41:48;;;;;;;10.27;2.78;;;;;;;20.82;64.44;100665.41;5063068;28;20064;-59
2021/08/05 02:44:16;;;;;;;4.18;2.60;;;;;;;20.72;64.63;100654.50;5060029;28;20460;-59
2021/08/05 02:46:46;;;;;;;3.83;2.45;;;;;;;20.55;64.77;100633.59;5059940;28;20462;-59
2021/08/05 02:49:15;;;;;;;5.88;2.78;;;;;;;20.70;64.77;100651.16;5056777;28;20475;-59
2021/08/05 02:51:44;;;;;;;4.63;2.88;;;;;;;20.62;64.97;100655.72;5071150;28;20072;-62
2021/08/05 02:54:13;;;;;;;4.45;2.55;;;;;;;20.62;64.93;100661.41;5059384;28;20537;-62
2021/08/05 02:56:41;;;;;;;5.35;2.70;;;;;;;20.61;65.27;100664.56;5063550;28;20051;-62
2021/08/05 02:59:08;;;;;;;6.05;2.38;;;;;;;20.54;65.00;100643.25;5053635;28;20072;-64
2021/08/05 03:01:35;;;;;;;7.32;2.80;;;;;;;20.59;64.92;100656.41;5068513;28;20045;-62
2021/08/05 03:04:02;;;;;;;4.57;2.38;;;;;;;20.51;64.85;100648.78;5066359;28;20059;-62
2021/08/05 03:06:31;;;;;;;5.68;2.63;;;;;;;20.54;64.91;100660.28;5057991;28;20072;-62
2021/08/05 03:08:58;;;;;;;7.30;2.83;;;;;;;20.40;64.99;100662.53;5056867;28;20071;-61
2021/08/05 03:11:25;;;;;;;3.97;2.47;;;;;;;20.40;65.30;100654.00;5059740;28;20595;-62
2021/08/05 03:13:52;;;;;;;6.38;3.28;;;;;;;20.41;65.29;100650.03;5057838;28;20448;-61
2021/08/05 03:16:18;;;;;;;5.78;3.38;;;;;;;20.44;65.25;100654.97;5059537;28;20072;-61
2021/08/05 03:18:45;;;;;;;4.90;3.28;;;;;;;20.45;65.41;100653.81;5058444;28;20053;-62
2021/08/05 03:21:12;;;;;;;4.75;2.55;;;;;;;20.46;64.85;100651.81;5079690;28;20068;-61
2021/08/05 03:23:39;;;;;;;5.28;2.50;;;;;;;20.45;65.30;100644.47;5076312;28;20123;-62
2021/08/05 03:26:06;;;;;;;8.60;2.17;;;;;;;20.46;65.25;100652.63;5051822;28;20074;-59
2021/08/05 03:28:33;;;;;;;7.07;2.63;;;;;;;20.47;65.13;100642.94;5061806;28;20132;-61
2021/08/05 03:31:00;;;;;;;4.00;2.55;;;;;;;20.45;65.04;100647.31;5041834;28;20155;-58
2021/08/05 03:33:27;;;;;;;5.13;2.70;;;;;;;20.39;64.92;100638.19;5060743;28;20096;-59
2021/08/05 03:35:54;;;;;;;4.80;2.33;;;;;;;20.47;65.21;100648.63;5068773;28;20127;-60
2021/08/05 03:38:21;;;;;;;4.00;2.20;;;;;;;20.47;65.40;100648.63;5070397;28;20408;-60
2021/08/05 03:40:48;;;;;;;6.15;2.45;;;;;;;20.47;65.32;100645.78;5064945;28;20139;-61
2021/08/05 03:43:15;;;;;;;6.13;2.40;;;;;;;20.50;65.19;100645.13;5052535;28;20401;-61
2021/08/05 03:45:41;;;;;;;5.50;2.53;;;;;;;20.51;65.33;100643.09;5052162;28;20132;-61
2021/08/05 03:48:08;;;;;;;5.38;2.47;;;;;;;20.55;65.41;100644.94;5055571;28;20307;-61
2021/08/05 03:50:35;;;;;;;6.53;2.40;;;;;;;20.45;65.60;100628.28;5065044;28;20089;-61
2021/08/05 03:53:02;;;;;;;6.45;2.47;;;;;;;20.59;65.63;100645.06;5053601;28;20707;-60
2021/08/05 03:55:29;;;;;;;3.92;2.17;;;;;;;20.59;65.52;100645.06;5057912;28;20066;-60
2021/08/05 03:57:56;;;;;;;4.63;2.50;;;;;;;20.47;65.62;100634.44;5053456;28;20114;-61
2021/08/05 04:00:24;;;;;;;5.13;2.33;;;;;;;20.51;65.58;100643.97;5051239;28;20144;-61
2021/08/05 04:02:50;;;;;;;3.67;2.65;;;;;;;20.62;65.46;100660.56;5053338;28;20135;-62
2021/08/05 04:05:18;;;;;;;5.85;2.67;;;;;;;20.58;65.32;100655.59;5067185;28;20512;-62
2021/08/05 04:07:45;;;;;;;7.65;2.75;;;;;;;20.67;65.18;100663.19;5072503;28;20123;-63
2021/08/05 04:10:12;;;;;;;8.35;2.90;;;;;;;20.57;65.38;100633.22;5065334;28;20048;-63
2021/08/05 04:12:39;;;;;;;6.03;2.67;;;;;;;20.56;65.16;100635.22;5065513;28;20134;-62
2021/08/05 04:15:06;;;;;;;5.05;2.25;;;;;;;20.61;65.22;100641.88;5059569;28;20131;-62
2021/08/05 04:17:34;;;;;;;4.45;2.47;;;;;;;20.70;65.31;100651.97;5050608;28;20124;-61
2021/08/05 04:20:02;;;;;;;5.80;2.80;;;;;;;20.71;64.77;100641.44;5040831;28;20059;-62
2021/08/05 04:22:29;;;;;;;6.88;2.75;;;;;;;20.71;65.02;100652.81;5052701;28;20049;-61
2021/08/05 04:24:56;;;;;;;10.77;2.70;;;;;;;20.73;65.05;100656.97;5052544;28;20132;-61
2021/08/05 04:27:23;;;;;;;5.78;2.55;;;;;;;20.74;65.03;100658.63;5065510;28;20075;-60
2021/08/05 04:29:50;;;;;;;5.75;2.90;;;;;;;20.58;64.96;100638.56;5065866;28;20077;-60
2021/08/05 04:32:17;;;;;;;5.95;3.63;;;;;;;20.69;65.27;100632.47;5054739;28;20127;-60
2021/08/05 04:34:43;;;;;;;5.90;2.90;;;;;;;20.78;64.93;100653.91;5052800;28;20077;-60
2021/08/05 04:37:10;;;;;;;5.55;3.08;;;;;;;20.77;64.99;100645.75;5069390;28;20044;-61
2021/08/05 04:39:39;;;;;;;7.22;3.00;;;;;;;20.66;64.82;100627.50;5057559;28;20045;-62
2021/08/05 04:42:06;;;;;;;4.93;2.50;;;;;;;20.64;64.96;100635.50;5069340;28;20044;-61
2021/08/05 04:44:33;;;;;;;6.63;3.50;;;;;;;20.73;64.80;100642.78;5059506;28;20171;-60
2021/08/05 04:46:59;;;;;;;6.90;3.40;;;;;;;20.67;64.89;100614.94;5057036;28;20072;-60
2021/08/05 04:49:27;;;;;;;6.00;3.08;;;;;;;20.75;64.89;100629.06;5054249;28;20133;-60
2021/08/05 04:51:54;;;;;;;6.50;2.97;;;;;;;20.73;64.84;100633.44;5056931;28;20057;-58
2021/08/05 04:54:21;;;;;;;6.03;3.97;;;;;;;20.74;64.85;100626.56;5081407;28;20563;-59
2021/08/05 04:56:49;;;;;;;10.68;3.10;;;;;;;20.76;64.75;100638.41;5066437;28;20089;-59
2021/08/05 04:59:16;;;;;;;8.25;3.08;;;;;;;20.76;64.64;100646.94;5053642;28;20559;-59
2021/08/05 05:01:45;;;;;;;3.65;2.63;;;;;;;20.74;64.79;100650.09;5055288;28;20133;-63
2021/08/05 05:04:12;;;;;;;4.97;2.67;;;;;;;20.75;64.63;100650.94;5058843;28;20048;-59
2021/08/05 05:06:39;;;;;;;5.47;2.40;;;;;;;20.77;64.65;100657.91;5057483;28;20068;-60
2021/08/05 05:09:06;;;;;;;5.32;2.70;;;;;;;20.71;64.50;100642.28;5061951;28;20083;-63
2021/08/05 05:11:33;;;;;;;13.18;2.92;;;;;;;20.76;64.73;100661.94;5067288;28;20065;-63
2021/08/05 05:14:00;;;;;;;7.50;2.90;;;;;;;20.77;64.51;100674.13;5064249;28;20052;-64
2021/08/05 05:16:27;;;;;;;5.65;2.70;;;;;;;20.61;64.27;100647.53;5058522;28;20127;-63
2021/08/05 05:18:54;;;;;;;7.47;2.78;;;;;;;20.62;64.55;100643.56;5055318;28;20650;-65
2021/08/05 05:21:21;;;;;;;4.10;2.33;;;;;;;20.64;64.84;100661.03;5055516;28;20084;-68
2021/08/05 05:23:47;;;;;;;5.43;3.40;;;;;;;20.67;64.86;100669.69;5068303;28;20147;-63
2021/08/05 05:26:15;;;;;;;6.20;2.70;;;;;;;20.68;64.83;100664.84;5057060;28;20107;-60
2021/08/05 05:28:42;;;;;;;4.47;2.35;;;;;;;20.66;64.85;100672.88;5063851;28;20489;-63
2021/08/05 05:31:09;;;;;;;6.07;2.95;;;;;;;20.61;64.88;100653.22;5053334;28;20076;-67
2021/08/05 05:33:36;;;;;;;5.25;2.75;;;;;;;20.57;64.85;100662.41;5065807;28;20136;-65
2021/08/05 05:36:03;;;;;;;4.07;2.15;;;;;;;20.54;64.82;100654.59;5056504;28;20465;-69
2021/08/05 05:38:30;;;;;;;7.80;2.50;;;;;;;20.57;64.72;100670.94;5055430;28;20036;-67
2021/08/05 05:40:57;;;;;;;8.02;2.95;;;;;;;20.54;64.48;100665.13;5071184;28;20440;-67
2021/08/05 05:43:24;;;;;;;6.97;2.78;;;;;;;20.67;64.44;100674.53;5064106;28;20144;-68
2021/08/05 05:45:51;;;;;;;4.63;2.55;;;;;;;20.71;64.17;100678.34;5063031;28;20124;-68
2021/08/05 05:48:18;;;;;;;3.85;2.75;;;;;;;20.70;64.13;100682.38;5064455;28;20086;-64
2021/08/05 05:50:45;;;;;;;5.00;2.55;;;;;;;20.69;63.99;100681.53;5052765;28;20041;-66
2021/08/05 05:53:12;;;;;;;9.48;2.60;;;;;;;20.59;63.84;100651.56;5074358;28;20044;-64
2021/08/05 05:55:40;;;;;;;4.43;2.35;;;;;;;20.68;63.98;100681.88;5063456;28;20044;-63
2021/08/05 05:58:07;;;;;;;5.30;2.40;;;;;;;20.69;63.90;100684.38;5041111;28;20072;-65
2021/08/05 06:00:34;;;;;;;4.97;2.90;;;;;;;20.59;64.11;100659.25;5069649;28;20394;-66
2021/08/05 06:03:02;;;;;;;4.30;2.30;;;;;;;20.62;63.87;100675.59;5071065;28;20045;-66
2021/08/05 06:05:30;;;;;;;5.20;2.85;;;;;;;20.46;64.18;100655.47;5066548;28;20045;-66
2021/08/05 06:07:56;;;;;;;3.78;2.10;;;;;;;20.53;64.17;100674.81;5062802;28;20072;-66
2021/08/05 06:10:23;;;;;;;4.38;2.25;;;;;;;20.50;64.11;100667.81;5066519;28;20085;-66
2021/08/05 06:12:50;;;;;;;7.95;2.65;;;;;;;20.49;63.87;100666.13;5067173;28;20127;-66
2021/08/05 06:15:18;;;;;;;7.63;2.72;;;;;;;20.50;64.04;100666.97;5046065;28;20144;-65
2021/08/05 06:17:45;;;;;;;5.18;2.40;;;;;;;20.50;64.13;100676.31;5062823;28;20114;-66
2021/08/05 06:20:15;;;;;;;6.15;2.35;;;;;;;20.49;63.87;100659.63;5073888;28;20049;-66
2021/08/05 06:22:42;;;;;;;6.57;2.28;;;;;;;20.38;63.96;100653.53;5056122;28;20068;-65
2021/08/05 06:25:10;;;;;;;6.03;1.85;;;;;;;20.45;63.90;100655.84;5056435;28;20136;-64
2021/08/05 06:27:37;;;;;;;6.35;2.55;;;;;;;20.45;64.05;100656.66;5058482;28;20076;-64
2021/08/05 06:30:06;;;;;;;4.05;2.35;;;;;;;20.53;63.84;100664.28;5060095;28;20098;-64
2021/08/05 06:32:33;;;;;;;4.88;2.15;;;;;;;20.52;63.68;100648.47;5054456;28;20088;-64
2021/08/05 06:35:01;;;;;;;4.30;2.65;;;;;;;20.68;63.93;100671.34;5063273;28;20056;-65
2021/08/05 06:37:28;;;;;;;5.93;2.25;;;;;;;20.70;63.84;100673.84;5060082;28;20548;-65
2021/08/05 06:39:55;;;;;;;4.65;2.38;;;;;;;20.80;63.75;100679.13;5050959;28;20045;-65
2021/08/05 06:42:21;;;;;;;4.40;2.22;;;;;;;20.77;63.81;100660.75;5057718;28;20131;-65
2021/08/05 06:44:48;;;;;;;5.43;2.30;;;;;;;20.84;63.68;100680.06;5068360;28;20044;-63
2021/08/05 06:47:15;;;;;;;5.38;2.83;;;;;;;20.80;63.60;100676.28;5055728;28;20071;-64
2021/08/05 06:49:43;;;;;;;3.03;2.25;;;;;;;20.90;63.53;100684.38;5070869;28;20040;-64
2021/08/05 06:52:10;;;;;;;5.43;2.42;;;;;;;21.01;63.17;100690.44;5057756;28;20080;-65
2021/08/05 06:54:37;;;;;;;8.40;2.53;;;;;;;21.09;62.95;100691.53;5060902;28;20132;-64
2021/08/05 06:57:04;;;;;;;4.47;2.53;;;;;;;21.10;63.06;100681.88;5053565;28;20132;-65
2021/08/05 06:59:31;;;;;;;5.60;2.08;;;;;;;21.09;62.80;100675.31;5054683;28;20467;-64
2021/08/05 07:01:59;;;;;;;6.35;2.80;;;;;;;21.19;62.70;100685.44;5053524;28;20084;-64
2021/08/05 07:04:26;;;;;;;4.25;2.28;;;;;;;21.30;62.91;100695.19;5060916;28;20131;-65
2021/08/05 07:06:53;;;;;;;4.57;2.78;;;;;;;21.44;62.37;100704.25;5057450;28;20141;-64
2021/08/05 07:09:19;;;;;;;7.10;2.75;;;;;;;21.78;62.19;100696.53;5061621;28;20046;-65
2021/08/05 07:11:46;;;;;;;6.78;3.08;;;;;;;22.36;61.40;100688.75;5053356;28;20067;-65
2021/08/05 07:14:13;;;;;;;4.75;2.90;;;;;;;22.89;60.51;100700.97;5056320;28;20132;-65
2021/08/05 07:16:40;;;;;;;6.47;3.25;;;;;;;23.08;59.94;100703.19;5063757;28;20041;-70
2021/08/05 07:19:07;;;;;;;5.13;2.45;;;;;;;23.41;59.13;100713.47;5072475;28;20507;-69
2021/08/05 07:21:34;;;;;;;5.22;2.70;;;;;;;23.56;58.64;100709.03;5071412;28;20528;-70
2021/08/05 07:24:01;;;;;;;5.75;2.33;;;;;;;23.58;58.55;100720.88;5052626;28;20201;-69
2021/08/05 07:26:28;;;;;;;5.05;2.85;;;;;;;23.47;58.33;100714.88;5052215;28;20087;-69
2021/08/05 07:28:54;;;;;;;8.48;3.00;;;;;;;23.43;58.52;100716.81;5052606;28;20168;-69
2021/08/05 07:31:21;;;;;;;6.72;3.20;;;;;;;23.36;58.58;100716.59;5052498;28;20127;-69
2021/08/05 07:33:50;;;;;;;8.30;2.80;;;;;;;23.33;58.01;100709.59;5052571;28;20041;-68
2021/08/05 07:36:17;;;;;;;6.20;2.45;;;;;;;23.28;58.10;100706.19;5052739;28;20072;-68
2021/08/05 07:38:44;;;;;;;7.07;2.50;;;;;;;23.28;58.19;100718.44;5070730;28;20127;-67
2021/08/05 07:41:11;;;;;;;5.47;2.42;;;;;;;23.24;57.87;100722.34;5072191;28;20106;-67
2021/08/05 07:43:38;;;;;;;9.63;2.90;;;;;;;23.20;57.84;100713.69;5071563;28;20078;-68
2021/08/05 07:46:05;;;;;;;6.47;3.28;;;;;;;23.22;57.92;100707.66;5072670;28;20071;-68
2021/08/05 07:48:32;;;;;;;5.18;2.63;;;;;;;23.23;57.66;100704.44;5072388;28;20044;-69
2021/08/05 07:50:59;;;;;;;10.32;4.30;;;;;;;23.21;57.19;100703.94;5053204;28;20084;-67
2021/08/05 07:53:26;;;;;;;6.15;2.53;;;;;;;23.16;57.32;100709.91;5072291;28;20051;-67
2021/08/05 07:55:53;;;;;;;5.30;2.80;;;;;;;22.99;57.42;100704.53;5072520;28;20494;-68
2021/08/05 07:58:19;;;;;;;7.07;2.95;;;;;;;23.36;57.13;100710.91;5072370;28;20053;-69
2021/08/05 08:00:48;;;;;;;12.52;2.67;;;;;;;23.99;56.86;100707.34;5053526;28;20048;-69
2021/08/05 08:03:15;;;;;;;5.75;2.22;;;;;;;24.75;55.35;100720.25;5064939;28;20044;-69
2021/08/05 08:05:44;;;;;;;4.25;2.55;;;;;;;25.60;54.08;100706.09;5053027;28;20708;-69
2021/08/05 08:08:11;;;;;;;3.65;2.17;;;;;;;26.31;52.57;100723.75;5063638;28;20550;-70
2021/08/05 08:10:39;;;;;;;4.07;2.35;;;;;;;26.96;51.16;100708.41;5039934;28;20516;-69
2021/08/05 08:13:22;;;;;;;4.28;2.47;;;;;;;27.59;49.88;100730.53;5054358;28;20175;-66
2021/08/05 08:15:50;;;;;;;7.90;2.65;;;;;;;27.62;49.32;100715.41;5063179;28;20455;-66
2021/08/05 08:18:17;;;;;;;4.57;2.88;;;;;;;27.54;49.18;100719.38;5051988;28;20045;-66
2021/08/05 08:20:44;;;;;;;4.32;2.70;;;;;;;27.30;49.09;100723.59;5056293;28;20105;-66
2021/08/05 08:23:12;;;;;;;6.13;2.70;;;;;;;27.05;49.41;100719.56;5052196;28;20135;-67
2021/08/05 08:25:39;;;;;;;6.20;2.83;;;;;;;26.64;49.73;100714.50;5071961;28;20083;-67
2021/08/05 08:28:07;;;;;;;7.30;3.22;;;;;;;26.25;50.08;100710.97;5071060;28;20084;-67
2021/08/05 08:30:35;;;;;;;5.17;2.70;;;;;;;26.00;50.11;100716.28;5071899;28;20080;-66
2021/08/05 08:33:03;;;;;;;6.85;2.40;;;;;;;25.49;50.49;100694.47;5055841;28;20332;-66
2021/08/05 08:35:31;;;;;;;6.68;2.55;;;;;;;25.08;50.59;100716.06;5051856;28;20551;-66
2021/08/05 08:37:59;;;;;;;6.25;2.85;;;;;;;24.72;51.36;100717.31;5051721;28;20045;-67
2021/08/05 08:40:27;;;;;;;7.55;3.03;;;;;;;24.58;51.32;100717.78;5063800;28;20500;-67
2021/08/05 08:42:54;;;;;;;6.30;2.88;;;;;;;24.38;51.95;100727.47;5051852;28;20408;-67
2021/08/05 08:45:21;;;;;;;4.60;2.35;;;;;;;24.15;51.88;100713.03;5051813;28;20072;-67
2021/08/05 08:47:52;;;;;;;10.20;3.92;;;;;;;24.13;51.79;100713.41;5051657;28;20049;-66
2021/08/05 08:50:32;;;;;;;5.53;2.85;;;;;;;24.59;51.50;100717.44;5063576;28;20048;-67
2021/08/05 08:53:06;;;;;;;5.60;3.10;;;;;;;25.18;50.77;100688.94;5075883;28;20044;-67
2021/08/05 08:55:34;;;;;;;5.97;2.90;;;;;;;25.84;49.63;100712.72;5075734;28;20072;-66
2021/08/05 08:58:03;;;;;;;5.05;3.20;;;;;;;26.38;49.05;100709.56;5073805;28;20048;-66
2021/08/05 09:00:31;;;;;;;4.57;2.83;;;;;;;27.15;48.08;100711.16;5057073;28;20045;-66
2021/08/05 09:02:59;;;;;;;3.92;2.30;;;;;;;27.94;46.13;100709.19;5075388;28;20060;-66
2021/08/05 09:05:28;;;;;;;4.90;2.83;;;;;;;28.58;45.44;100717.50;5075627;28;20401;-67
2021/08/05 09:07:57;;;;;;;8.13;2.78;;;;;;;29.03;44.99;100698.94;5073763;28;20052;-67
2021/08/05 09:10:25;;;;;;;4.55;2.78;;;;;;;29.61;43.43;100702.06;5074411;28;20067;-67
2021/08/05 09:12:56;;;;;;;4.90;2.47;;;;;;;29.95;42.64;100697.59;5075614;28;20548;-66
2021/08/05 09:15:49;;;;;;;5.82;2.58;;;;;;;30.39;42.32;100709.94;5063436;28;20409;-67
2021/08/05 09:18:38;;;;;;;6.47;3.00;;;;;;;30.17;42.55;100700.47;5064268;28;20131;-67
2021/08/05 09:21:34;;;;;;;4.78;2.13;;;;;;;29.88;41.67;100717.72;5075262;28;20084;-66
2021/08/05 09:24:08;;;;;;;6.47;3.05;;;;;;;29.84;42.44;100711.13;5053095;28;20045;-67
2021/08/05 09:26:44;;;;;;;6.53;2.10;;;;;;;30.21;41.64;100705.00;5058968;28;20441;-67
2021/08/05 09:29:19;;;;;;;6.63;2.20;;;;;;;30.54;40.81;100711.59;5074866;28;20041;-66
2021/08/05 09:31:55;;;;;;;6.47;2.50;;;;;;;30.66;40.84;100704.56;5063973;28;20049;-67
2021/08/05 09:34:39;;;;;;;5.57;2.13;;;;;;;30.68;40.40;100699.22;5051766;28;20087;-67
2021/08/05 09:37:08;;;;;;;4.82;2.65;;;;;;;30.31;39.44;100702.53;5064515;28;20068;-67
2021/08/05 09:39:37;;;;;;;;;;;;;;;29.45;41.86;100703.19;5075153;28;20080;-67
2021/08/05 09:42:08;;;;;;;3.67;2.70;;;;;;;29.29;41.34;100688.34;5074650;28;19930;-66
2021/08/05 09:44:38;;;;;;;5.45;2.30;;;;;;;29.18;40.55;100707.63;5058773;28;20479;-66
2021/08/05 09:47:18;;;;;;;5.03;2.70;;;;;;;29.06;41.06;100708.81;5064262;28;20488;-66
2021/08/05 09:49:49;;;;;;;5.28;2.58;;;;;;;29.18;40.30;100704.75;5071146;28;20072;-66
2021/08/05 09:52:31;;;;;;;5.70;2.70;;;;;;;29.33;40.48;100705.63;5067930;28;20048;-66
2021/08/05 09:55:03;;;;;;;3.38;2.42;;;;;;;29.40;40.24;100676.88;5072991;28;20127;-67
2021/08/05 09:57:35;;;;;;;5.05;2.20;;;;;;;29.64;40.64;100695.47;5074217;28;20550;-68
2021/08/05 10:00:04;;;;;;;6.03;2.90;;;;;;;29.41;40.03;100695.81;5059750;28;20045;-67
2021/08/05 10:02:41;;;;;;;5.85;2.30;;;;;;;29.17;40.59;100671.47;5072554;28;20056;-66
2021/08/05 10:05:14;;;;;;;9.57;2.97;;;;;;;29.42;40.16;100706.88;5070999;28;20400;-66
2021/08/05 10:07:42;;;;;;;5.22;2.63;;;;;;;29.10;40.05;100709.66;5064792;28;20152;-66
2021/08/05 10:10:11;;;;;;;6.18;3.42;;;;;;;28.80;40.40;100704.94;5062925;28;20048;-66
2021/08/05 10:12:39;;;;;;;6.88;3.35;;;;;;;28.63;40.39;100693.34;5074080;28;20465;-66
2021/08/05 10:15:08;;;;;;;9.18;3.17;;;;;;;28.44;40.63;100678.00;5056637;28;20079;-65
2021/08/05 10:17:36;;;;;;;5.75;2.90;;;;;;;28.58;41.28;100683.88;5053004;28;20044;-66
2021/08/05 10:20:08;;;;;;;6.55;2.47;;;;;;;28.97;41.55;100671.75;5060278;28;20247;-66
2021/08/05 10:22:36;;;;;;;4.80;2.67;;;;;;;29.27;40.68;100667.81;5054488;28;20144;-64
2021/08/05 10:25:05;;;;;;;6.50;3.17;;;;;;;29.33;40.73;100674.78;5068953;28;20131;-65
2021/08/05 10:27:32;;;;;;;;;;;;;;;29.15;41.94;100682.53;5072896;28;20154;-66
2021/08/05 10:30:00;;;;;;;7.18;3.13;;;;;;;29.14;40.92;100687.47;5064697;28;20027;-66
2021/08/05 10:32:27;;;;;;;6.18;3.03;;;;;;;28.78;41.28;100692.19;5073109;28;20048;-66
2021/08/05 10:34:54;;;;;;;11.02;3.78;;;;;;;28.52;41.54;100691.22;5054269;28;20140;-66
2021/08/05 10:37:21;;;;;;;6.72;2.95;;;;;;;28.71;41.75;100700.75;5058262;28;20072;-66
2021/08/05 10:39:48;;;;;;;5.43;2.70;;;;;;;28.70;41.54;100676.13;5070871;28;20106;-66
2021/08/05 10:42:18;;;;;;;6.75;3.38;;;;;;;28.83;41.33;100694.69;5059611;28;20148;-65
2021/08/05 10:44:47;;;;;;;11.77;3.50;;;;;;;29.26;41.43;100692.03;5054108;28;20136;-65
2021/08/05 10:47:21;;;;;;;6.35;2.47;;;;;;;29.67;40.79;100694.63;5067863;28;20083;-65
2021/08/05 10:49:51;;;;;;;4.50;2.67;;;;;;;29.87;40.47;100678.63;5054504;28;20072;-65
2021/08/05 10:52:36;;;;;;;5.13;2.53;;;;;;;30.10;40.77;100677.44;5073191;28;20457;-65
2021/08/05 10:55:23;;;;;;;5.95;2.90;;;;;;;30.19;40.02;100672.13;5073224;28;20053;-65
2021/08/05 10:58:05;;;;;;;6.32;2.80;;;;;;;30.21;40.58;100676.22;5068453;28;20139;-65
2021/08/05 11:00:50;;;;;;;7.15;2.88;;;;;;;29.88;40.18;100668.78;5043502;28;20123;-66
2021/08/05 11:03:32;;;;;;;9.45;3.53;;;;;;;30.34;40.58;100662.22;5073253;28;20052;-66
2021/08/05 11:06:04;;;;;;;5.90;2.80;;;;;;;31.01;39.39;100642.28;5072139;28;20098;-67
2021/08/05 11:08:31;;;;;;;4.35;2.88;;;;;;;31.56;38.28;100668.41;5071684;28;20080;-66
2021/08/05 11:11:21;;;;;;;4.93;2.63;;;;;;;31.42;38.79;100656.09;5068124;28;20048;-65
2021/08/05 11:13:53;;;;;;;;;;;;;;;31.23;40.10;100657.44;5072470;28;20049;-66
2021/08/05 11:16:53;;;;;;;4.10;2.50;;;;;;;31.60;39.40;100656.84;5056790;28;19971;-65
2021/08/05 11:19:20;;;;;;;4.78;2.75;;;;;;;31.87;38.65;100665.75;5059449;28;20056;-65
2021/08/05 11:21:47;;;;;;;5.18;3.33;;;;;;;31.92;38.40;100662.38;5073240;28;20566;-65
2021/08/05 11:24:48;;;;;;;4.63;2.50;;;;;;;31.80;38.83;100643.47;5071995;28;20080;-66
2021/08/05 11:27:20;;;;;;;5.50;2.40;;;;;;;31.99;38.39;100649.97;5067140;28;20068;-65
2021/08/05 11:29:48;;;;;;;6.60;2.42;;;;;;;32.16;37.39;100654.75;5053084;28;20072;-66
2021/08/05 11:32:21;;;;;;;5.10;2.65;;;;;;;32.08;37.86;100645.34;5068023;28;20505;-65
2021/08/05 11:35:02;;;;;;;6.97;2.70;;;;;;;32.26;37.33;100645.16;5052603;28;20055;-65
2021/08/05 11:37:29;;;;;;;3.75;2.38;;;;;;;32.11;37.68;100635.00;5052544;28;20509;-65